sensor_id;sensor_type;location;lat;lon;timestamp;P1;durP1;ratioP1;P2;durP2;ratioP2
10517;SDS011;5307;42.548;22.968;2023-06-19T00:00:55;12.98;;;9.30;;
10517;SDS011;5307;42.548;22.968;2023-06-19T00:03:22;12.25;;;9.43;;
10517;SDS011;5307;42.548;22.968;2023-06-19T00:05:49;12.60;;;10.48;;
10517;SDS011;5307;42.548;22.968;2023-06-19T00:08:16;12.52;;;10.65;;
10517;SDS011;5307;42.548;22.968;2023-06-19T00:10:44;13.68;;;10.35;;
10517;SDS011;5307;42.548;22.968;2023-06-19T00:13:10;16.92;;;9.75;;
10517;SDS011;5307;42.548;22.968;2023-06-19T00:15:38;16.48;;;10.10;;
10517;SDS011;5307;42.548;22.968;2023-06-19T00:18:05;18.80;;;10.25;;
10517;SDS011;5307;42.548;22.968;2023-06-19T00:20:32;12.98;;;10.18;;
10517;SDS011;5307;42.548;22.968;2023-06-19T00:23:00;17.50;;;10.13;;
10517;SDS011;5307;42.548;22.968;2023-06-19T00:25:27;12.45;;;9.98;;
10517;SDS011;5307;42.548;22.968;2023-06-19T00:27:53;13.60;;;9.00;;
10517;SDS011;5307;42.548;22.968;2023-06-19T00:30:20;13.18;;;9.50;;
10517;SDS011;5307;42.548;22.968;2023-06-19T00:32:48;15.80;;;10.00;;
10517;SDS011;5307;42.548;22.968;2023-06-19T00:35:18;15.27;;;10.02;;
10517;SDS011;5307;42.548;22.968;2023-06-19T00:37:46;12.27;;;9.07;;
10517;SDS011;5307;42.548;22.968;2023-06-19T00:40:15;12.75;;;10.05;;
10517;SDS011;5307;42.548;22.968;2023-06-19T00:42:47;12.48;;;10.30;;
10517;SDS011;5307;42.548;22.968;2023-06-19T00:45:14;11.82;;;9.77;;
10517;SDS011;5307;42.548;22.968;2023-06-19T00:47:41;12.95;;;9.70;;
10517;SDS011;5307;42.548;22.968;2023-06-19T00:50:10;13.65;;;10.25;;
10517;SDS011;5307;42.548;22.968;2023-06-19T00:52:37;12.05;;;10.13;;
10517;SDS011;5307;42.548;22.968;2023-06-19T00:55:04;19.00;;;10.60;;
10517;SDS011;5307;42.548;22.968;2023-06-19T00:57:34;17.00;;;10.20;;
10517;SDS011;5307;42.548;22.968;2023-06-19T01:00:02;10.95;;;9.65;;
10517;SDS011;5307;42.548;22.968;2023-06-19T01:02:32;16.92;;;10.48;;
10517;SDS011;5307;42.548;22.968;2023-06-19T01:04:59;16.20;;;10.35;;
10517;SDS011;5307;42.548;22.968;2023-06-19T01:07:28;12.07;;;9.45;;
10517;SDS011;5307;42.548;22.968;2023-06-19T01:10:06;12.00;;;9.88;;
10517;SDS011;5307;42.548;22.968;2023-06-19T01:12:38;12.18;;;9.75;;
10517;SDS011;5307;42.548;22.968;2023-06-19T01:15:13;10.52;;;9.10;;
10517;SDS011;5307;42.548;22.968;2023-06-19T01:17:40;16.70;;;9.20;;
10517;SDS011;5307;42.548;22.968;2023-06-19T01:20:08;11.43;;;8.88;;
10517;SDS011;5307;42.548;22.968;2023-06-19T01:22:37;11.43;;;9.27;;
10517;SDS011;5307;42.548;22.968;2023-06-19T01:25:04;13.95;;;8.55;;
10517;SDS011;5307;42.548;22.968;2023-06-19T01:27:32;9.27;;;7.68;;
10517;SDS011;5307;42.548;22.968;2023-06-19T01:29:59;10.95;;;7.90;;
10517;SDS011;5307;42.548;22.968;2023-06-19T01:32:29;12.02;;;7.57;;
10517;SDS011;5307;42.548;22.968;2023-06-19T01:34:59;8.25;;;7.25;;
10517;SDS011;5307;42.548;22.968;2023-06-19T01:37:28;13.80;;;8.40;;
10517;SDS011;5307;42.548;22.968;2023-06-19T01:39:59;14.00;;;7.05;;
10517;SDS011;5307;42.548;22.968;2023-06-19T01:42:29;7.47;;;6.75;;
10517;SDS011;5307;42.548;22.968;2023-06-19T01:44:57;10.38;;;6.97;;
10517;SDS011;5307;42.548;22.968;2023-06-19T01:47:25;11.70;;;7.35;;
10517;SDS011;5307;42.548;22.968;2023-06-19T01:49:52;10.15;;;6.68;;
10517;SDS011;5307;42.548;22.968;2023-06-19T01:52:19;11.27;;;6.45;;
10517;SDS011;5307;42.548;22.968;2023-06-19T01:54:45;11.05;;;6.80;;
10517;SDS011;5307;42.548;22.968;2023-06-19T01:57:13;10.73;;;6.85;;
10517;SDS011;5307;42.548;22.968;2023-06-19T01:59:40;10.40;;;6.30;;
10517;SDS011;5307;42.548;22.968;2023-06-19T02:02:07;13.35;;;6.18;;
10517;SDS011;5307;42.548;22.968;2023-06-19T02:04:34;11.93;;;6.82;;
10517;SDS011;5307;42.548;22.968;2023-06-19T02:07:01;9.68;;;6.63;;
10517;SDS011;5307;42.548;22.968;2023-06-19T02:09:28;10.07;;;6.68;;
10517;SDS011;5307;42.548;22.968;2023-06-19T02:11:54;9.10;;;6.88;;
10517;SDS011;5307;42.548;22.968;2023-06-19T02:14:23;7.40;;;5.90;;
10517;SDS011;5307;42.548;22.968;2023-06-19T02:17:03;13.70;;;6.50;;
10517;SDS011;5307;42.548;22.968;2023-06-19T02:19:29;7.88;;;6.20;;
10517;SDS011;5307;42.548;22.968;2023-06-19T02:21:56;11.23;;;5.65;;
10517;SDS011;5307;42.548;22.968;2023-06-19T02:24:23;7.60;;;6.60;;
10517;SDS011;5307;42.548;22.968;2023-06-19T02:26:50;11.73;;;6.43;;
10517;SDS011;5307;42.548;22.968;2023-06-19T02:29:17;12.18;;;6.15;;
10517;SDS011;5307;42.548;22.968;2023-06-19T02:31:45;11.85;;;6.32;;
10517;SDS011;5307;42.548;22.968;2023-06-19T02:34:12;9.18;;;6.28;;
10517;SDS011;5307;42.548;22.968;2023-06-19T02:36:39;10.00;;;6.22;;
10517;SDS011;5307;42.548;22.968;2023-06-19T02:39:06;7.90;;;5.90;;
10517;SDS011;5307;42.548;22.968;2023-06-19T02:41:32;9.45;;;6.35;;
10517;SDS011;5307;42.548;22.968;2023-06-19T02:43:59;9.13;;;7.15;;
10517;SDS011;5307;42.548;22.968;2023-06-19T02:46:26;12.73;;;6.32;;
10517;SDS011;5307;42.548;22.968;2023-06-19T02:48:54;8.13;;;5.88;;
10517;SDS011;5307;42.548;22.968;2023-06-19T02:51:21;13.65;;;6.55;;
10517;SDS011;5307;42.548;22.968;2023-06-19T02:53:48;6.85;;;5.68;;
10517;SDS011;5307;42.548;22.968;2023-06-19T02:56:15;12.40;;;6.20;;
10517;SDS011;5307;42.548;22.968;2023-06-19T02:58:42;12.75;;;7.32;;
10517;SDS011;5307;42.548;22.968;2023-06-19T03:01:08;13.43;;;6.53;;
10517;SDS011;5307;42.548;22.968;2023-06-19T03:03:38;11.48;;;6.75;;
10517;SDS011;5307;42.548;22.968;2023-06-19T03:06:07;13.02;;;6.57;;
10517;SDS011;5307;42.548;22.968;2023-06-19T03:08:34;10.13;;;7.25;;
10517;SDS011;5307;42.548;22.968;2023-06-19T03:11:03;7.05;;;6.03;;
10517;SDS011;5307;42.548;22.968;2023-06-19T03:13:31;9.68;;;6.30;;
10517;SDS011;5307;42.548;22.968;2023-06-19T03:16:02;15.05;;;7.10;;
10517;SDS011;5307;42.548;22.968;2023-06-19T03:18:28;10.90;;;6.63;;
10517;SDS011;5307;42.548;22.968;2023-06-19T03:20:55;9.73;;;6.35;;
10517;SDS011;5307;42.548;22.968;2023-06-19T03:23:23;11.07;;;5.65;;
10517;SDS011;5307;42.548;22.968;2023-06-19T03:25:50;9.32;;;6.32;;
10517;SDS011;5307;42.548;22.968;2023-06-19T03:28:17;6.45;;;5.47;;
10517;SDS011;5307;42.548;22.968;2023-06-19T03:30:44;10.20;;;6.03;;
10517;SDS011;5307;42.548;22.968;2023-06-19T03:33:11;10.18;;;6.10;;
10517;SDS011;5307;42.548;22.968;2023-06-19T03:35:37;7.97;;;6.28;;
10517;SDS011;5307;42.548;22.968;2023-06-19T03:38:05;9.05;;;6.30;;
10517;SDS011;5307;42.548;22.968;2023-06-19T03:43:24;7.63;;;5.75;;
10517;SDS011;5307;42.548;22.968;2023-06-19T03:45:51;9.88;;;5.80;;
10517;SDS011;5307;42.548;22.968;2023-06-19T03:48:24;9.93;;;5.85;;
10517;SDS011;5307;42.548;22.968;2023-06-19T03:50:51;8.25;;;6.00;;
10517;SDS011;5307;42.548;22.968;2023-06-19T03:53:18;9.02;;;5.63;;
10517;SDS011;5307;42.548;22.968;2023-06-19T03:55:45;10.50;;;6.18;;
10517;SDS011;5307;42.548;22.968;2023-06-19T03:58:13;12.18;;;6.35;;
10517;SDS011;5307;42.548;22.968;2023-06-19T04:00:40;9.45;;;6.45;;
10517;SDS011;5307;42.548;22.968;2023-06-19T04:03:07;11.73;;;7.18;;
10517;SDS011;5307;42.548;22.968;2023-06-19T04:05:34;10.38;;;6.38;;
10517;SDS011;5307;42.548;22.968;2023-06-19T04:08:01;12.57;;;6.55;;
10517;SDS011;5307;42.548;22.968;2023-06-19T04:10:29;12.23;;;6.85;;
10517;SDS011;5307;42.548;22.968;2023-06-19T04:12:56;7.93;;;6.72;;
10517;SDS011;5307;42.548;22.968;2023-06-19T04:15:24;9.70;;;6.93;;
10517;SDS011;5307;42.548;22.968;2023-06-19T04:17:51;8.70;;;6.70;;
10517;SDS011;5307;42.548;22.968;2023-06-19T04:20:18;15.00;;;7.43;;
10517;SDS011;5307;42.548;22.968;2023-06-19T04:22:45;11.88;;;6.88;;
10517;SDS011;5307;42.548;22.968;2023-06-19T04:25:12;12.30;;;7.80;;
10517;SDS011;5307;42.548;22.968;2023-06-19T04:27:38;10.27;;;8.07;;
10517;SDS011;5307;42.548;22.968;2023-06-19T04:30:06;13.95;;;8.38;;
10517;SDS011;5307;42.548;22.968;2023-06-19T04:32:34;9.45;;;7.80;;
10517;SDS011;5307;42.548;22.968;2023-06-19T04:35:01;9.88;;;7.35;;
10517;SDS011;5307;42.548;22.968;2023-06-19T04:37:29;8.75;;;7.82;;
10517;SDS011;5307;42.548;22.968;2023-06-19T04:39:57;14.35;;;8.32;;
10517;SDS011;5307;42.548;22.968;2023-06-19T04:42:24;13.45;;;8.30;;
10517;SDS011;5307;42.548;22.968;2023-06-19T04:44:51;9.57;;;8.32;;
10517;SDS011;5307;42.548;22.968;2023-06-19T04:47:19;12.32;;;8.18;;
10517;SDS011;5307;42.548;22.968;2023-06-19T04:49:49;10.40;;;6.75;;
10517;SDS011;5307;42.548;22.968;2023-06-19T04:52:16;15.02;;;7.05;;
10517;SDS011;5307;42.548;22.968;2023-06-19T04:54:43;9.65;;;6.90;;
10517;SDS011;5307;42.548;22.968;2023-06-19T04:57:10;17.17;;;10.07;;
10517;SDS011;5307;42.548;22.968;2023-06-19T04:59:37;9.48;;;7.63;;
10517;SDS011;5307;42.548;22.968;2023-06-19T05:02:04;11.82;;;8.10;;
10517;SDS011;5307;42.548;22.968;2023-06-19T05:04:32;11.98;;;7.47;;
10517;SDS011;5307;42.548;22.968;2023-06-19T05:07:00;11.20;;;6.90;;
10517;SDS011;5307;42.548;22.968;2023-06-19T05:09:28;9.48;;;7.20;;
10517;SDS011;5307;42.548;22.968;2023-06-19T05:11:55;11.13;;;6.72;;
10517;SDS011;5307;42.548;22.968;2023-06-19T05:14:23;10.82;;;6.95;;
10517;SDS011;5307;42.548;22.968;2023-06-19T05:16:50;10.82;;;7.32;;
10517;SDS011;5307;42.548;22.968;2023-06-19T05:19:16;9.85;;;7.10;;
10517;SDS011;5307;42.548;22.968;2023-06-19T05:21:43;13.60;;;7.00;;
10517;SDS011;5307;42.548;22.968;2023-06-19T05:24:11;12.35;;;7.90;;
10517;SDS011;5307;42.548;22.968;2023-06-19T05:26:38;12.50;;;7.60;;
10517;SDS011;5307;42.548;22.968;2023-06-19T05:29:05;8.93;;;6.53;;
10517;SDS011;5307;42.548;22.968;2023-06-19T05:31:33;12.63;;;7.40;;
10517;SDS011;5307;42.548;22.968;2023-06-19T05:34:00;9.98;;;6.57;;
10517;SDS011;5307;42.548;22.968;2023-06-19T05:36:27;10.32;;;7.00;;
10517;SDS011;5307;42.548;22.968;2023-06-19T05:38:54;12.27;;;7.15;;
10517;SDS011;5307;42.548;22.968;2023-06-19T05:41:22;8.23;;;6.47;;
10517;SDS011;5307;42.548;22.968;2023-06-19T05:43:49;11.55;;;6.53;;
10517;SDS011;5307;42.548;22.968;2023-06-19T05:46:15;8.13;;;6.45;;
10517;SDS011;5307;42.548;22.968;2023-06-19T05:48:42;8.65;;;6.75;;
10517;SDS011;5307;42.548;22.968;2023-06-19T05:51:09;9.70;;;6.60;;
10517;SDS011;5307;42.548;22.968;2023-06-19T05:53:36;11.77;;;7.10;;
10517;SDS011;5307;42.548;22.968;2023-06-19T05:56:04;10.25;;;6.68;;
10517;SDS011;5307;42.548;22.968;2023-06-19T05:58:33;12.27;;;7.20;;
10517;SDS011;5307;42.548;22.968;2023-06-19T06:01:00;11.93;;;7.57;;
10517;SDS011;5307;42.548;22.968;2023-06-19T06:03:28;12.95;;;7.65;;
10517;SDS011;5307;42.548;22.968;2023-06-19T06:05:55;8.13;;;5.63;;
10517;SDS011;5307;42.548;22.968;2023-06-19T06:08:27;7.65;;;5.47;;
10517;SDS011;5307;42.548;22.968;2023-06-19T06:10:54;7.95;;;5.72;;
10517;SDS011;5307;42.548;22.968;2023-06-19T06:13:21;8.55;;;5.03;;
10517;SDS011;5307;42.548;22.968;2023-06-19T06:15:49;11.05;;;5.13;;
10517;SDS011;5307;42.548;22.968;2023-06-19T06:18:16;7.55;;;5.10;;
10517;SDS011;5307;42.548;22.968;2023-06-19T06:20:43;6.22;;;5.25;;
10517;SDS011;5307;42.548;22.968;2023-06-19T06:23:10;7.57;;;4.88;;
10517;SDS011;5307;42.548;22.968;2023-06-19T06:25:37;6.68;;;5.30;;
10517;SDS011;5307;42.548;22.968;2023-06-19T06:28:03;7.00;;;4.68;;
10517;SDS011;5307;42.548;22.968;2023-06-19T06:30:30;7.85;;;4.90;;
10517;SDS011;5307;42.548;22.968;2023-06-19T06:32:58;6.75;;;5.20;;
10517;SDS011;5307;42.548;22.968;2023-06-19T06:35:25;7.18;;;5.20;;
10517;SDS011;5307;42.548;22.968;2023-06-19T06:37:52;6.90;;;5.07;;
10517;SDS011;5307;42.548;22.968;2023-06-19T06:57:46;8.45;;;3.97;;
10517;SDS011;5307;42.548;22.968;2023-06-19T07:00:13;7.10;;;4.57;;
10517;SDS011;5307;42.548;22.968;2023-06-19T07:02:40;8.10;;;4.43;;
10517;SDS011;5307;42.548;22.968;2023-06-19T07:05:08;9.73;;;4.53;;
10517;SDS011;5307;42.548;22.968;2023-06-19T07:07:35;5.47;;;4.65;;
10517;SDS011;5307;42.548;22.968;2023-06-19T07:10:02;8.13;;;4.28;;
10517;SDS011;5307;42.548;22.968;2023-06-19T07:12:29;5.43;;;4.45;;
10517;SDS011;5307;42.548;22.968;2023-06-19T07:14:57;4.68;;;3.88;;
10517;SDS011;5307;42.548;22.968;2023-06-19T07:17:24;4.85;;;4.18;;
10517;SDS011;5307;42.548;22.968;2023-06-19T07:19:50;4.63;;;4.22;;
10517;SDS011;5307;42.548;22.968;2023-06-19T07:22:17;7.70;;;4.50;;
10517;SDS011;5307;42.548;22.968;2023-06-19T07:24:44;8.00;;;4.45;;
10517;SDS011;5307;42.548;22.968;2023-06-19T07:27:11;6.32;;;4.55;;
10517;SDS011;5307;42.548;22.968;2023-06-19T07:29:38;5.85;;;4.22;;
10517;SDS011;5307;42.548;22.968;2023-06-19T07:32:07;6.22;;;4.22;;
10517;SDS011;5307;42.548;22.968;2023-06-19T07:34:34;5.22;;;4.72;;
10517;SDS011;5307;42.548;22.968;2023-06-19T07:37:00;14.25;;;11.68;;
10517;SDS011;5307;42.548;22.968;2023-06-19T07:39:27;7.63;;;4.60;;
10517;SDS011;5307;42.548;22.968;2023-06-19T07:41:54;6.60;;;4.07;;
10517;SDS011;5307;42.548;22.968;2023-06-19T07:44:21;6.28;;;4.70;;
10517;SDS011;5307;42.548;22.968;2023-06-19T07:46:48;7.13;;;4.47;;
10517;SDS011;5307;42.548;22.968;2023-06-19T07:49:16;4.43;;;4.03;;
10517;SDS011;5307;42.548;22.968;2023-06-19T07:51:43;5.90;;;4.30;;
10517;SDS011;5307;42.548;22.968;2023-06-19T07:54:09;4.03;;;3.58;;
10517;SDS011;5307;42.548;22.968;2023-06-19T07:56:36;4.22;;;3.83;;
10517;SDS011;5307;42.548;22.968;2023-06-19T07:59:03;4.10;;;3.60;;
10517;SDS011;5307;42.548;22.968;2023-06-19T08:01:30;4.85;;;3.97;;
10517;SDS011;5307;42.548;22.968;2023-06-19T08:03:57;6.70;;;4.00;;
10517;SDS011;5307;42.548;22.968;2023-06-19T08:06:25;4.13;;;3.50;;
10517;SDS011;5307;42.548;22.968;2023-06-19T08:08:52;16.90;;;7.38;;
10517;SDS011;5307;42.548;22.968;2023-06-19T08:11:18;5.55;;;3.47;;
10517;SDS011;5307;42.548;22.968;2023-06-19T08:13:45;29.15;;;10.65;;
10517;SDS011;5307;42.548;22.968;2023-06-19T08:16:13;11.23;;;5.90;;
10517;SDS011;5307;42.548;22.968;2023-06-19T08:18:40;6.30;;;3.88;;
10517;SDS011;5307;42.548;22.968;2023-06-19T08:21:07;6.20;;;3.90;;
10517;SDS011;5307;42.548;22.968;2023-06-19T08:23:35;6.13;;;3.72;;
10517;SDS011;5307;42.548;22.968;2023-06-19T08:26:04;4.32;;;3.55;;
10517;SDS011;5307;42.548;22.968;2023-06-19T08:28:32;19.35;;;4.80;;
10517;SDS011;5307;42.548;22.968;2023-06-19T08:30:59;5.90;;;3.65;;
10517;SDS011;5307;42.548;22.968;2023-06-19T08:33:25;7.70;;;4.45;;
10517;SDS011;5307;42.548;22.968;2023-06-19T08:35:52;12.55;;;3.80;;
10517;SDS011;5307;42.548;22.968;2023-06-19T08:38:19;4.63;;;3.85;;
10517;SDS011;5307;42.548;22.968;2023-06-19T08:40:48;8.65;;;4.40;;
10517;SDS011;5307;42.548;22.968;2023-06-19T08:43:15;13.70;;;6.32;;
10517;SDS011;5307;42.548;22.968;2023-06-19T08:45:42;4.45;;;3.58;;
10517;SDS011;5307;42.548;22.968;2023-06-19T08:48:12;9.02;;;3.65;;
10517;SDS011;5307;42.548;22.968;2023-06-19T08:50:40;9.02;;;4.65;;
10517;SDS011;5307;42.548;22.968;2023-06-19T08:53:07;5.32;;;3.92;;
10517;SDS011;5307;42.548;22.968;2023-06-19T08:55:34;3.97;;;3.38;;
10517;SDS011;5307;42.548;22.968;2023-06-19T08:58:02;6.57;;;4.13;;
10517;SDS011;5307;42.548;22.968;2023-06-19T09:00:29;9.88;;;4.07;;
10517;SDS011;5307;42.548;22.968;2023-06-19T09:02:58;6.40;;;3.95;;
10517;SDS011;5307;42.548;22.968;2023-06-19T09:05:26;4.53;;;3.70;;
10517;SDS011;5307;42.548;22.968;2023-06-19T09:07:56;4.28;;;3.88;;
10517;SDS011;5307;42.548;22.968;2023-06-19T09:10:26;10.50;;;4.40;;
10517;SDS011;5307;42.548;22.968;2023-06-19T09:12:57;4.00;;;3.60;;
10517;SDS011;5307;42.548;22.968;2023-06-19T09:15:28;4.50;;;4.10;;
10517;SDS011;5307;42.548;22.968;2023-06-19T09:18:00;4.80;;;4.03;;
10517;SDS011;5307;42.548;22.968;2023-06-19T09:20:28;4.25;;;3.72;;
10517;SDS011;5307;42.548;22.968;2023-06-19T09:22:55;4.80;;;3.75;;
10517;SDS011;5307;42.548;22.968;2023-06-19T09:25:22;5.68;;;3.85;;
10517;SDS011;5307;42.548;22.968;2023-06-19T09:27:52;5.47;;;3.97;;
10517;SDS011;5307;42.548;22.968;2023-06-19T09:30:22;5.72;;;3.85;;
10517;SDS011;5307;42.548;22.968;2023-06-19T09:32:50;6.72;;;4.10;;
10517;SDS011;5307;42.548;22.968;2023-06-19T09:35:18;5.18;;;4.55;;
10517;SDS011;5307;42.548;22.968;2023-06-19T09:37:46;5.28;;;4.45;;
10517;SDS011;5307;42.548;22.968;2023-06-19T09:40:13;9.30;;;3.92;;
10517;SDS011;5307;42.548;22.968;2023-06-19T09:42:41;9.88;;;4.43;;
10517;SDS011;5307;42.548;22.968;2023-06-19T09:45:10;4.72;;;4.22;;
10517;SDS011;5307;42.548;22.968;2023-06-19T09:47:42;5.68;;;4.00;;
10517;SDS011;5307;42.548;22.968;2023-06-19T09:50:12;4.63;;;4.03;;
10517;SDS011;5307;42.548;22.968;2023-06-19T09:52:40;5.40;;;4.20;;
10517;SDS011;5307;42.548;22.968;2023-06-19T09:55:09;6.07;;;4.43;;
10517;SDS011;5307;42.548;22.968;2023-06-19T09:57:38;6.35;;;4.20;;
10517;SDS011;5307;42.548;22.968;2023-06-19T10:00:06;5.07;;;4.45;;
10517;SDS011;5307;42.548;22.968;2023-06-19T10:02:37;6.80;;;4.25;;
10517;SDS011;5307;42.548;22.968;2023-06-19T10:05:04;6.93;;;4.78;;
10517;SDS011;5307;42.548;22.968;2023-06-19T10:07:35;7.10;;;4.13;;
10517;SDS011;5307;42.548;22.968;2023-06-19T10:10:02;4.80;;;4.18;;
10517;SDS011;5307;42.548;22.968;2023-06-19T10:12:35;7.15;;;4.30;;
10517;SDS011;5307;42.548;22.968;2023-06-19T10:15:14;6.78;;;4.05;;
10517;SDS011;5307;42.548;22.968;2023-06-19T10:17:43;4.85;;;4.18;;
10517;SDS011;5307;42.548;22.968;2023-06-19T10:20:19;4.72;;;4.10;;
10517;SDS011;5307;42.548;22.968;2023-06-19T10:22:58;16.38;;;4.50;;
10517;SDS011;5307;42.548;22.968;2023-06-19T10:25:30;5.22;;;3.97;;
10517;SDS011;5307;42.548;22.968;2023-06-19T10:27:58;5.43;;;3.80;;
10517;SDS011;5307;42.548;22.968;2023-06-19T10:30:32;7.40;;;3.70;;
10517;SDS011;5307;42.548;22.968;2023-06-19T10:32:59;4.22;;;3.80;;
10517;SDS011;5307;42.548;22.968;2023-06-19T10:35:36;4.00;;;3.47;;
10517;SDS011;5307;42.548;22.968;2023-06-19T10:38:13;5.18;;;3.83;;
10517;SDS011;5307;42.548;22.968;2023-06-19T10:40:40;4.30;;;3.35;;
10517;SDS011;5307;42.548;22.968;2023-06-19T10:43:08;9.38;;;3.80;;
10517;SDS011;5307;42.548;22.968;2023-06-19T10:45:34;6.18;;;3.80;;
10517;SDS011;5307;42.548;22.968;2023-06-19T10:48:01;9.98;;;4.07;;
10517;SDS011;5307;42.548;22.968;2023-06-19T10:50:30;3.38;;;3.08;;
10517;SDS011;5307;42.548;22.968;2023-06-19T10:53:01;6.20;;;3.58;;
10517;SDS011;5307;42.548;22.968;2023-06-19T10:55:29;5.20;;;3.83;;
10517;SDS011;5307;42.548;22.968;2023-06-19T10:57:56;6.47;;;3.50;;
10517;SDS011;5307;42.548;22.968;2023-06-19T11:00:25;5.55;;;4.38;;
10517;SDS011;5307;42.548;22.968;2023-06-19T11:02:52;6.13;;;3.08;;
10517;SDS011;5307;42.548;22.968;2023-06-19T11:05:20;4.70;;;4.00;;
10517;SDS011;5307;42.548;22.968;2023-06-19T11:07:54;13.25;;;3.90;;
10517;SDS011;5307;42.548;22.968;2023-06-19T11:10:22;8.32;;;3.55;;
10517;SDS011;5307;42.548;22.968;2023-06-19T11:12:54;4.90;;;4.40;;
10517;SDS011;5307;42.548;22.968;2023-06-19T11:15:31;4.40;;;3.85;;
10517;SDS011;5307;42.548;22.968;2023-06-19T11:17:59;5.70;;;4.10;;
10517;SDS011;5307;42.548;22.968;2023-06-19T11:20:28;8.80;;;3.65;;
10517;SDS011;5307;42.548;22.968;2023-06-19T11:22:55;4.78;;;3.85;;
10517;SDS011;5307;42.548;22.968;2023-06-19T11:25:34;4.13;;;3.47;;
10517;SDS011;5307;42.548;22.968;2023-06-19T11:28:03;4.80;;;4.05;;
10517;SDS011;5307;42.548;22.968;2023-06-19T11:30:31;4.97;;;3.63;;
10517;SDS011;5307;42.548;22.968;2023-06-19T11:32:58;4.97;;;3.90;;
10517;SDS011;5307;42.548;22.968;2023-06-19T11:35:32;4.88;;;4.10;;
10517;SDS011;5307;42.548;22.968;2023-06-19T11:38:01;11.38;;;4.07;;
10517;SDS011;5307;42.548;22.968;2023-06-19T11:40:28;6.65;;;3.42;;
10517;SDS011;5307;42.548;22.968;2023-06-19T11:42:55;6.53;;;3.88;;
10517;SDS011;5307;42.548;22.968;2023-06-19T11:45:23;7.63;;;4.13;;
10517;SDS011;5307;42.548;22.968;2023-06-19T11:47:50;4.95;;;4.05;;
10517;SDS011;5307;42.548;22.968;2023-06-19T11:50:17;3.95;;;3.40;;
10517;SDS011;5307;42.548;22.968;2023-06-19T11:52:44;3.55;;;3.25;;
10517;SDS011;5307;42.548;22.968;2023-06-19T11:55:13;5.80;;;3.70;;
10517;SDS011;5307;42.548;22.968;2023-06-19T11:57:40;4.93;;;3.80;;
10517;SDS011;5307;42.548;22.968;2023-06-19T12:00:16;7.63;;;3.70;;
10517;SDS011;5307;42.548;22.968;2023-06-19T12:02:45;3.85;;;3.33;;
10517;SDS011;5307;42.548;22.968;2023-06-19T12:05:15;4.90;;;3.67;;
10517;SDS011;5307;42.548;22.968;2023-06-19T12:07:42;4.65;;;3.08;;
10517;SDS011;5307;42.548;22.968;2023-06-19T12:10:09;7.47;;;3.53;;
10517;SDS011;5307;42.548;22.968;2023-06-19T12:12:37;3.72;;;3.33;;
10517;SDS011;5307;42.548;22.968;2023-06-19T12:15:05;3.42;;;2.83;;
10517;SDS011;5307;42.548;22.968;2023-06-19T12:17:33;5.53;;;3.30;;
10517;SDS011;5307;42.548;22.968;2023-06-19T12:20:01;6.65;;;3.72;;
10517;SDS011;5307;42.548;22.968;2023-06-19T12:22:31;4.75;;;3.53;;
10517;SDS011;5307;42.548;22.968;2023-06-19T12:24:57;6.07;;;2.97;;
10517;SDS011;5307;42.548;22.968;2023-06-19T12:27:24;5.20;;;3.60;;
10517;SDS011;5307;42.548;22.968;2023-06-19T12:29:51;3.60;;;3.30;;
10517;SDS011;5307;42.548;22.968;2023-06-19T12:32:18;4.22;;;3.13;;
10517;SDS011;5307;42.548;22.968;2023-06-19T12:34:46;4.18;;;3.42;;
10517;SDS011;5307;42.548;22.968;2023-06-19T12:37:20;6.97;;;3.30;;
10517;SDS011;5307;42.548;22.968;2023-06-19T12:39:48;6.13;;;3.28;;
10517;SDS011;5307;42.548;22.968;2023-06-19T12:42:15;6.75;;;3.15;;
10517;SDS011;5307;42.548;22.968;2023-06-19T12:44:43;9.40;;;3.45;;
10517;SDS011;5307;42.548;22.968;2023-06-19T12:47:10;4.28;;;3.35;;
10517;SDS011;5307;42.548;22.968;2023-06-19T12:49:37;3.67;;;3.10;;
10517;SDS011;5307;42.548;22.968;2023-06-19T12:52:04;6.28;;;3.05;;
10517;SDS011;5307;42.548;22.968;2023-06-19T12:54:33;7.38;;;3.75;;
10517;SDS011;5307;42.548;22.968;2023-06-19T12:57:00;4.53;;;3.50;;
10517;SDS011;5307;42.548;22.968;2023-06-19T12:59:27;15.43;;;4.10;;
10517;SDS011;5307;42.548;22.968;2023-06-19T13:01:54;5.18;;;3.47;;
10517;SDS011;5307;42.548;22.968;2023-06-19T13:04:21;3.45;;;3.15;;
10517;SDS011;5307;42.548;22.968;2023-06-19T13:06:48;3.45;;;3.10;;
10517;SDS011;5307;42.548;22.968;2023-06-19T13:09:14;5.32;;;3.05;;
10517;SDS011;5307;42.548;22.968;2023-06-19T13:11:42;5.68;;;3.28;;
10517;SDS011;5307;42.548;22.968;2023-06-19T13:14:09;3.97;;;3.55;;
10517;SDS011;5307;42.548;22.968;2023-06-19T13:16:36;4.70;;;3.78;;
10517;SDS011;5307;42.548;22.968;2023-06-19T13:19:03;4.43;;;3.50;;
10517;SDS011;5307;42.548;22.968;2023-06-19T13:21:30;3.80;;;3.45;;
10517;SDS011;5307;42.548;22.968;2023-06-19T13:23:56;6.45;;;3.65;;
10517;SDS011;5307;42.548;22.968;2023-06-19T13:26:23;5.50;;;3.80;;
10517;SDS011;5307;42.548;22.968;2023-06-19T13:28:52;4.43;;;3.38;;
10517;SDS011;5307;42.548;22.968;2023-06-19T13:31:18;4.57;;;3.60;;
10517;SDS011;5307;42.548;22.968;2023-06-19T13:33:45;8.13;;;3.63;;
10517;SDS011;5307;42.548;22.968;2023-06-19T13:36:12;5.82;;;3.85;;
10517;SDS011;5307;42.548;22.968;2023-06-19T13:38:39;8.57;;;3.95;;
10517;SDS011;5307;42.548;22.968;2023-06-19T13:41:05;4.97;;;3.42;;
10517;SDS011;5307;42.548;22.968;2023-06-19T13:43:32;7.22;;;3.85;;
10517;SDS011;5307;42.548;22.968;2023-06-19T13:46:00;6.50;;;3.90;;
10517;SDS011;5307;42.548;22.968;2023-06-19T13:48:30;5.07;;;3.97;;
10517;SDS011;5307;42.548;22.968;2023-06-19T13:50:57;7.70;;;3.70;;
10517;SDS011;5307;42.548;22.968;2023-06-19T13:53:25;5.00;;;3.95;;
10517;SDS011;5307;42.548;22.968;2023-06-19T13:55:53;4.70;;;3.97;;
10517;SDS011;5307;42.548;22.968;2023-06-19T13:58:20;4.63;;;4.00;;
10517;SDS011;5307;42.548;22.968;2023-06-19T14:00:47;6.13;;;4.03;;
10517;SDS011;5307;42.548;22.968;2023-06-19T14:03:15;7.63;;;4.35;;
10517;SDS011;5307;42.548;22.968;2023-06-19T14:05:42;5.57;;;4.18;;
10517;SDS011;5307;42.548;22.968;2023-06-19T14:08:09;5.95;;;4.57;;
10517;SDS011;5307;42.548;22.968;2023-06-19T14:10:36;7.07;;;4.82;;
10517;SDS011;5307;42.548;22.968;2023-06-19T14:13:02;5.82;;;4.30;;
10517;SDS011;5307;42.548;22.968;2023-06-19T14:15:29;7.78;;;4.18;;
10517;SDS011;5307;42.548;22.968;2023-06-19T14:17:56;7.90;;;4.47;;
10517;SDS011;5307;42.548;22.968;2023-06-19T14:20:24;5.68;;;4.03;;
10517;SDS011;5307;42.548;22.968;2023-06-19T14:22:51;4.45;;;4.05;;
10517;SDS011;5307;42.548;22.968;2023-06-19T14:25:18;5.40;;;4.35;;
10517;SDS011;5307;42.548;22.968;2023-06-19T14:27:45;6.65;;;3.67;;
10517;SDS011;5307;42.548;22.968;2023-06-19T14:30:12;6.45;;;3.92;;
10517;SDS011;5307;42.548;22.968;2023-06-19T14:32:39;7.10;;;4.50;;
10517;SDS011;5307;42.548;22.968;2023-06-19T14:35:06;5.60;;;3.95;;
10517;SDS011;5307;42.548;22.968;2023-06-19T14:37:35;7.43;;;4.43;;
10517;SDS011;5307;42.548;22.968;2023-06-19T14:40:02;5.18;;;4.22;;
10517;SDS011;5307;42.548;22.968;2023-06-19T14:42:29;7.15;;;4.13;;
10517;SDS011;5307;42.548;22.968;2023-06-19T14:44:56;4.47;;;3.85;;
10517;SDS011;5307;42.548;22.968;2023-06-19T14:47:23;5.43;;;4.20;;
10517;SDS011;5307;42.548;22.968;2023-06-19T14:49:50;7.65;;;4.38;;
10517;SDS011;5307;42.548;22.968;2023-06-19T14:52:18;4.80;;;4.30;;
10517;SDS011;5307;42.548;22.968;2023-06-19T14:54:47;5.75;;;4.75;;
10517;SDS011;5307;42.548;22.968;2023-06-19T14:57:14;5.53;;;4.60;;
10517;SDS011;5307;42.548;22.968;2023-06-19T14:59:41;6.15;;;4.28;;
10517;SDS011;5307;42.548;22.968;2023-06-19T15:02:08;7.43;;;4.30;;
10517;SDS011;5307;42.548;22.968;2023-06-19T15:04:36;5.30;;;4.33;;
10517;SDS011;5307;42.548;22.968;2023-06-19T15:07:04;6.60;;;4.40;;